Time;durP1;ratioP1;P1;durP2;ratioP2;P2;SDS_P1;SDS_P2;PMS_P1;PMS_P2;Temp;Humidity;BMP_temperature;BMP_pressure;BME280_temperature;BME280_humidity;BME280_pressure;Samples;Min_cycle;Max_cycle;Signal;HPM_P1;HPM_P2
2022/05/29 00:00:19;;;;;;;1.10;0.90;;;20.60;33.00;;;;;;4979606;28;20271;-58
2022/05/29 00:02:45;;;;;;;2.10;1.10;;;20.60;33.00;;;;;;4978436;28;20225;-58
2022/05/29 00:05:12;;;;;;;1.00;0.90;;;20.60;32.90;;;;;;4973600;28;20908;-58
2022/05/29 00:07:39;;;;;;;1.30;1.00;;;20.60;33.00;;;;;;4974905;28;20225;-59
2022/05/29 00:10:08;;;;;;;1.00;0.90;;;20.60;33.00;;;;;;4978563;28;20434;-59
2022/05/29 00:12:33;;;;;;;1.20;0.90;;;20.60;33.00;;;;;;4984086;28;20537;-58
2022/05/29 00:14:59;;;;;;;1.27;1.00;;;20.60;33.00;;;;;;4976688;28;20541;-58
2022/05/29 00:17:25;;;;;;;0.80;0.80;;;20.60;32.90;;;;;;4977242;28;20627;-58
2022/05/29 00:19:51;;;;;;;0.90;0.80;;;20.60;32.80;;;;;;4974939;28;20313;-58
2022/05/29 00:22:18;;;;;;;1.30;1.20;;;20.60;32.80;;;;;;4976980;28;20241;-58
2022/05/29 00:24:46;;;;;;;1.40;1.10;;;20.60;32.80;;;;;;4974423;28;20233;-58
2022/05/29 00:27:12;;;;;;;0.97;0.87;;;20.60;32.80;;;;;;4979009;28;20473;-58
2022/05/29 00:29:39;;;;;;;1.50;1.10;;;20.60;32.80;;;;;;4975126;28;20470;-58
2022/05/29 00:32:05;;;;;;;1.53;1.23;;;20.60;32.80;;;;;;4976638;28;20442;-58
2022/05/29 00:34:32;;;;;;;5.07;1.00;;;20.60;32.80;;;;;;4977995;28;21409;-58
2022/05/29 00:36:58;;;;;;;1.20;1.00;;;20.60;32.80;;;;;;4979345;28;20941;-58
2022/05/29 00:39:25;;;;;;;1.77;1.40;;;20.60;32.80;;;;;;4978434;28;20458;-58
2022/05/29 00:41:51;;;;;;;1.30;0.90;;;20.60;32.80;;;;;;4979764;28;20451;-58
2022/05/29 00:44:25;;;;;;;1.20;1.00;;;20.60;32.70;;;;;;4980809;28;20446;-58
2022/05/29 00:47:06;;;;;;;1.10;0.80;;;20.60;32.70;;;;;;4982600;28;20552;-58
2022/05/29 00:49:34;;;;;;;0.90;0.80;;;20.60;32.70;;;;;;4980919;28;20529;-58
2022/05/29 00:52:08;;;;;;;1.10;0.93;;;20.60;32.70;;;;;;4980135;28;20992;-58
2022/05/29 00:54:45;;;;;;;1.20;0.83;;;20.60;32.60;;;;;;4979484;28;20494;-58
2022/05/29 00:57:14;;;;;;;1.40;1.17;;;20.60;32.60;;;;;;4984265;28;20461;-59
2022/05/29 00:59:40;;;;;;;1.40;0.97;;;20.60;32.60;;;;;;4993078;28;20501;-58
2022/05/29 01:02:06;;;;;;;1.80;1.00;;;20.60;32.60;;;;;;4979712;28;20459;-58
2022/05/29 01:04:34;;;;;;;1.10;1.00;;;20.60;32.60;;;;;;4981294;28;20860;-58
2022/05/29 01:07:08;;;;;;;1.23;1.13;;;20.60;32.50;;;;;;4984427;28;20760;-58
2022/05/29 01:09:39;;;;;;;1.33;0.97;;;20.60;32.60;;;;;;4983043;28;20525;-58
2022/05/29 01:12:56;;;;;;;1.57;1.00;;;20.60;32.60;;;;;;4981505;28;20443;-58
2022/05/29 01:15:55;;;;;;;1.27;0.93;;;20.60;32.60;;;;;;4980645;28;20464;-58
2022/05/29 01:18:35;;;;;;;1.40;1.00;;;20.60;32.60;;;;;;4985528;28;20438;-58
2022/05/29 01:21:13;;;;;;;3.23;1.33;;;20.60;32.50;;;;;;4980731;28;20806;-58
2022/05/29 01:24:15;;;;;;;1.10;0.90;;;20.60;32.50;;;;;;4978465;28;20955;-58
2022/05/29 01:27:13;;;;;;;1.13;0.90;;;20.60;32.50;;;;;;4980495;28;20430;-59
2022/05/29 01:29:46;;;;;;;0.80;0.80;;;20.60;32.50;;;;;;4999199;28;20418;-58
2022/05/29 01:32:17;;;;;;;1.20;1.10;;;20.50;32.50;;;;;;4980714;28;20483;-58
2022/05/29 01:34:52;;;;;;;1.43;1.33;;;20.60;32.50;;;;;;4979716;28;20458;-59
2022/05/29 01:37:26;;;;;;;1.87;1.00;;;20.60;32.50;;;;;;4979660;28;20465;-58
2022/05/29 01:40:08;;;;;;;1.00;0.90;;;20.60;32.50;;;;;;4976956;28;20470;-58
2022/05/29 01:42:53;;;;;;;1.00;0.90;;;20.60;32.40;;;;;;4979623;28;20420;-58
2022/05/29 01:45:53;;;;;;;1.20;1.10;;;20.60;32.40;;;;;;4998714;28;20441;-59
2022/05/29 01:48:38;;;;;;;1.20;0.90;;;20.60;32.40;;;;;;4995579;28;20542;-59
2022/05/29 01:51:20;;;;;;;1.90;1.17;;;20.60;32.40;;;;;;4996396;28;20442;-58
2022/05/29 01:53:59;;;;;;;1.53;0.90;;;20.50;32.30;;;;;;4977609;28;20458;-58
2022/05/29 01:56:35;;;;;;;2.37;1.10;;;20.60;32.40;;;;;;5000820;28;20568;-58
2022/05/29 01:59:15;;;;;;;1.20;1.10;;;20.60;32.40;;;;;;4994216;28;20460;-59
2022/05/29 02:01:46;;;;;;;1.50;1.10;;;20.50;32.30;;;;;;5003289;28;20462;-60
2022/05/29 02:04:17;;;;;;;1.27;0.93;;;20.60;32.40;;;;;;5002476;28;20416;-58
2022/05/29 02:09:38;;;;;;;1.30;1.10;;;20.60;32.40;;;;;;4982592;28;20513;-58
2022/05/29 02:12:07;;;;;;;1.07;0.97;;;20.60;32.40;;;;;;4978510;28;20451;-58
2022/05/29 02:14:36;;;;;;;1.50;1.07;;;20.60;32.40;;;;;;4984026;28;20955;-58
2022/05/29 02:17:16;;;;;;;1.57;1.20;;;20.60;32.40;;;;;;4980386;28;20471;-58
2022/05/29 02:19:58;;;;;;;1.40;1.00;;;20.60;32.30;;;;;;4980334;28;20453;-58
2022/05/29 02:22:28;;;;;;;1.30;1.20;;;20.60;32.30;;;;;;4982232;28;20454;-58
2022/05/29 02:25:10;;;;;;;1.10;1.00;;;20.50;32.20;;;;;;4977769;28;20451;-58
2022/05/29 02:27:59;;;;;;;1.20;1.10;;;20.60;32.30;;;;;;4985091;28;20462;-58
2022/05/29 02:30:37;;;;;;;2.23;1.10;;;20.60;32.30;;;;;;4979948;28;20451;-58
2022/05/29 02:33:04;;;;;;;1.30;1.20;;;20.50;32.20;;;;;;4978909;28;20796;-58
2022/05/29 02:35:47;;;;;;;1.10;1.00;;;20.60;32.40;;;;;;4985468;28;20891;-58
2022/05/29 02:38:28;;;;;;;1.27;0.93;;;20.60;32.40;;;;;;4978908;28;20442;-58
2022/05/29 02:40:58;;;;;;;1.20;1.10;;;20.60;32.40;;;;;;4982040;28;20424;-58
2022/05/29 02:43:51;;;;;;;1.20;1.10;;;20.60;32.40;;;;;;4980613;28;20498;-58
2022/05/29 02:46:47;;;;;;;1.80;1.10;;;20.50;32.30;;;;;;4981118;28;20508;-59
2022/05/29 02:49:17;;;;;;;1.40;1.13;;;20.50;32.30;;;;;;4982556;28;20476;-58
2022/05/29 02:52:03;;;;;;;1.70;1.07;;;20.50;32.20;;;;;;4979223;28;20442;-58
2022/05/29 02:54:31;;;;;;;1.53;1.43;;;20.60;32.40;;;;;;4975899;28;20434;-58
2022/05/29 02:56:59;;;;;;;1.10;1.00;;;20.50;32.30;;;;;;4978866;28;20445;-58
2022/05/29 02:59:29;;;;;;;1.00;0.90;;;20.50;32.20;;;;;;4978245;28;20467;-58
2022/05/29 03:02:08;;;;;;;1.23;1.00;;;20.50;32.20;;;;;;4978212;28;20463;-58
2022/05/29 03:05:00;;;;;;;1.40;1.13;;;20.60;32.30;;;;;;4975977;28;20444;-58
2022/05/29 03:07:32;;;;;;;1.17;1.07;;;20.60;32.30;;;;;;4975444;28;20450;-58
2022/05/29 03:10:18;;;;;;;1.13;1.03;;;20.50;32.30;;;;;;4978733;28;20541;-58
2022/05/29 03:13:08;;;;;;;1.20;1.10;;;20.60;32.30;;;;;;4981035;28;20463;-59
2022/05/29 03:16:31;;;;;;;1.30;1.10;;;20.50;32.20;;;;;;4977385;28;21011;-58
2022/05/29 03:19:21;;;;;;;1.20;1.10;;;20.50;32.30;;;;;;4976401;28;20560;-58
2022/05/29 03:21:59;;;;;;;1.10;1.00;;;20.60;32.30;;;;;;5002445;28;20432;-58
2022/05/29 03:24:52;;;;;;;1.40;1.20;;;20.50;32.30;;;;;;4998687;28;20541;-58
2022/05/29 03:27:43;;;;;;;1.20;1.10;;;20.50;32.20;;;;;;4998225;28;20836;-59
2022/05/29 03:30:17;;;;;;;1.27;1.17;;;20.60;32.30;;;;;;4983508;28;20844;-58
2022/05/29 03:32:43;;;;;;;1.13;1.00;;;20.50;32.20;;;;;;4974648;28;20470;-58
2022/05/29 03:35:36;;;;;;;1.13;1.03;;;20.50;32.20;;;;;;4986237;28;20520;-58
2022/05/29 03:38:04;;;;;;;1.20;1.10;;;20.50;32.20;;;;;;4978479;28;20240;-58
2022/05/29 03:40:32;;;;;;;0.90;0.80;;;20.50;32.20;;;;;;4976859;28;20433;-58
2022/05/29 03:42:58;;;;;;;1.03;0.93;;;20.50;32.30;;;;;;4981704;28;20421;-58
2022/05/29 03:45:24;;;;;;;1.53;1.43;;;20.50;32.20;;;;;;4979822;28;20433;-58
2022/05/29 03:47:50;;;;;;;1.20;1.10;;;20.50;32.30;;;;;;4981244;28;20701;-58
2022/05/29 03:50:18;;;;;;;1.10;1.00;;;20.50;32.30;;;;;;4978043;28;20462;-59
2022/05/29 03:52:45;;;;;;;1.13;1.03;;;20.50;32.30;;;;;;4976846;28;20578;-58
2022/05/29 03:55:13;;;;;;;1.27;0.97;;;20.60;32.40;;;;;;4978853;28;20470;-58
2022/05/29 03:57:39;;;;;;;1.43;1.23;;;20.50;32.30;;;;;;4978436;28;20541;-58
2022/05/29 04:00:07;;;;;;;1.17;1.10;;;20.50;32.30;;;;;;4976980;28;20466;-58
2022/05/29 04:02:33;;;;;;;1.00;0.90;;;20.50;32.30;;;;;;4982386;28;20537;-58
2022/05/29 04:04:58;;;;;;;1.40;1.30;;;20.50;32.30;;;;;;4977058;28;20508;-58
2022/05/29 04:12:03;;;;;;;1.20;1.10;;;20.60;32.40;;;;;;4979398;28;20221;-58
2022/05/29 04:12:58;;;;;;;2.13;1.17;;;20.50;32.30;;;;;;4979827;28;20505;-59
2022/05/29 04:15:24;;;;;;;1.20;1.10;;;20.50;32.30;;;;;;4978170;28;20449;-58
2022/05/29 04:17:50;;;;;;;1.20;1.10;;;20.50;32.30;;;;;;4982221;28;20440;-58
2022/05/29 04:20:16;;;;;;;1.27;1.10;;;20.50;32.30;;;;;;4979726;28;20450;-59
2022/05/29 04:22:42;;;;;;;1.40;1.00;;;20.50;32.30;;;;;;4980475;28;20347;-58
2022/05/29 04:25:08;;;;;;;1.30;1.03;;;20.60;32.40;;;;;;4981897;28;20529;-58
2022/05/29 04:27:34;;;;;;;2.10;1.13;;;20.60;32.40;;;;;;4983000;28;20224;-58
2022/05/29 04:29:59;;;;;;;1.00;0.90;;;20.50;32.30;;;;;;4980172;28;20454;-58
2022/05/29 04:35:10;;;;;;;1.10;1.00;;;20.50;32.30;;;;;;4981754;28;20235;-58
2022/05/29 04:37:35;;;;;;;1.23;1.13;;;20.50;32.30;;;;;;4980488;28;20615;-58
2022/05/29 04:40:01;;;;;;;1.10;1.00;;;20.50;32.40;;;;;;4978567;28;20461;-58
2022/05/29 04:42:26;;;;;;;1.57;1.10;;;20.50;32.30;;;;;;4984558;28;20312;-58
2022/05/29 04:44:52;;;;;;;1.10;1.00;;;20.50;32.40;;;;;;4984546;28;20287;-58
2022/05/29 04:47:18;;;;;;;1.33;1.17;;;20.50;32.30;;;;;;4980965;28;20259;-58
2022/05/29 04:49:43;;;;;;;1.93;1.30;;;20.60;32.30;;;;;;4983515;28;20260;-58
2022/05/29 04:52:09;;;;;;;1.30;1.20;;;20.60;32.30;;;;;;4979341;28;20240;-58
2022/05/29 04:54:37;;;;;;;1.03;0.93;;;20.60;32.30;;;;;;4977858;28;20213;-59
2022/05/29 04:57:04;;;;;;;1.97;1.10;;;20.60;32.30;;;;;;4980279;28;20454;-58
2022/05/29 04:59:30;;;;;;;1.60;1.20;;;20.60;32.30;;;;;;4984201;28;20458;-58
2022/05/29 05:01:58;;;;;;;1.20;1.10;;;20.60;32.30;;;;;;4986810;28;20492;-58
2022/05/29 05:04:24;;;;;;;2.70;1.40;;;20.60;32.70;;;;;;4980743;28;20225;-58
2022/05/29 05:06:53;;;;;;;2.13;1.10;;;20.70;32.30;;;;;;4977175;28;20571;-58
2022/05/29 05:09:18;;;;;;;1.70;1.20;;;20.70;32.30;;;;;;4982793;28;20454;-58
2022/05/29 05:11:44;;;;;;;1.07;0.90;;;20.70;32.30;;;;;;4982295;28;20448;-58
2022/05/29 05:14:09;;;;;;;1.33;1.17;;;20.70;32.30;;;;;;4980090;28;20225;-58
2022/05/29 05:16:35;;;;;;;1.20;1.10;;;20.70;32.20;;;;;;4980516;28;20229;-61
2022/05/29 05:19:00;;;;;;;3.63;1.20;;;20.70;32.20;;;;;;4979424;28;20249;-59
2022/05/29 05:21:26;;;;;;;1.20;1.10;;;20.70;32.30;;;;;;4980087;28;20279;-59
2022/05/29 05:23:51;;;;;;;1.60;1.20;;;20.70;32.20;;;;;;4982307;28;20225;-59
2022/05/29 05:26:19;;;;;;;3.73;1.30;;;20.70;32.30;;;;;;4979482;28;20676;-59
2022/05/29 05:28:44;;;;;;;1.23;1.13;;;20.70;32.30;;;;;;4980384;28;20303;-59
2022/05/29 05:31:10;;;;;;;1.47;1.23;;;20.70;32.30;;;;;;4979133;28;20915;-59
2022/05/29 05:33:36;;;;;;;1.60;1.10;;;20.70;32.20;;;;;;4980377;28;20228;-59
2022/05/29 05:36:02;;;;;;;1.20;1.10;;;20.70;32.20;;;;;;4979739;28;20475;-59
2022/05/29 05:38:27;;;;;;;1.40;1.13;;;20.70;32.30;;;;;;4981420;28;20230;-59
2022/05/29 05:40:53;;;;;;;1.20;1.03;;;20.70;32.30;;;;;;4978772;28;20225;-59
2022/05/29 05:43:19;;;;;;;1.60;1.50;;;20.70;32.30;;;;;;4980082;28;20224;-59
2022/05/29 05:45:45;;;;;;;1.10;1.00;;;20.70;32.30;;;;;;4979700;28;20689;-59
2022/05/29 05:48:11;;;;;;;2.47;1.20;;;20.70;32.30;;;;;;4980166;28;20255;-59
2022/05/29 05:50:39;;;;;;;1.20;1.10;;;20.70;32.30;;;;;;4982381;28;20475;-59
2022/05/29 05:53:05;;;;;;;1.70;1.10;;;20.70;32.30;;;;;;4983370;28;20257;-59
2022/05/29 05:55:31;;;;;;;2.60;1.20;;;20.70;33.10;;;;;;4979392;28;20490;-59
2022/05/29 05:57:56;;;;;;;2.37;1.30;;;20.70;32.30;;;;;;4977802;28;20244;-59
2022/05/29 06:00:23;;;;;;;2.20;1.30;;;20.70;32.40;;;;;;4975483;28;20541;-59
2022/05/29 06:02:49;;;;;;;1.60;1.30;;;20.70;32.30;;;;;;4972831;28;20241;-59
2022/05/29 06:05:15;;;;;;;1.97;1.17;;;20.70;32.40;;;;;;4969968;28;20459;-60
2022/05/29 06:07:41;;;;;;;1.77;1.30;;;20.80;32.40;;;;;;4968194;28;20232;-62
2022/05/29 06:10:08;;;;;;;1.53;1.20;;;20.70;32.30;;;;;;4981956;28;20470;-59
2022/05/29 06:12:34;;;;;;;1.07;1.00;;;20.70;32.50;;;;;;4975555;28;20459;-59
2022/05/29 06:15:00;;;;;;;1.00;0.90;;;20.70;32.70;;;;;;4978464;28;20451;-59
2022/05/29 06:17:27;;;;;;;1.07;0.97;;;20.70;32.90;;;;;;4976048;28;20690;-58
2022/05/29 06:19:52;;;;;;;1.20;1.10;;;20.70;33.10;;;;;;4981654;28;20232;-58
2022/05/29 06:22:18;;;;;;;1.10;1.00;;;20.80;33.50;;;;;;4984085;28;20424;-58
2022/05/29 06:24:44;;;;;;;1.93;1.30;;;20.70;33.50;;;;;;4984053;28;20291;-59
2022/05/29 06:27:09;;;;;;;1.10;1.00;;;20.70;33.70;;;;;;4980324;28;20645;-58
2022/05/29 06:29:35;;;;;;;1.57;1.17;;;20.70;34.10;;;;;;4981512;28;20529;-58
2022/05/29 06:32:03;;;;;;;0.87;0.87;;;20.70;34.20;;;;;;4981885;28;20233;-58
2022/05/29 06:34:32;;;;;;;1.20;1.10;;;20.70;34.20;;;;;;4979862;28;20629;-59
2022/05/29 06:36:58;;;;;;;1.30;1.20;;;20.70;34.20;;;;;;4982356;28;20500;-59
2022/05/29 06:39:23;;;;;;;1.33;1.23;;;20.70;34.40;;;;;;4977755;28;21005;-58
2022/05/29 06:41:52;;;;;;;1.33;1.17;;;20.80;34.30;;;;;;4977522;28;20276;-59
2022/05/29 06:44:17;;;;;;;1.30;1.20;;;20.80;34.30;;;;;;4978685;28;20311;-59
2022/05/29 06:46:43;;;;;;;2.00;1.27;;;20.70;34.20;;;;;;4977841;28;20533;-61
2022/05/29 06:49:10;;;;;;;1.30;1.20;;;20.70;34.20;;;;;;4981100;28;20308;-59
2022/05/29 06:51:35;;;;;;;1.20;0.97;;;20.80;34.30;;;;;;4980212;28;20307;-61
2022/05/29 06:54:02;;;;;;;2.80;1.40;;;20.80;34.00;;;;;;4979780;28;20855;-62
2022/05/29 06:56:27;;;;;;;3.27;1.30;;;20.80;33.80;;;;;;4981232;28;20217;-61
2022/05/29 06:58:54;;;;;;;2.03;1.47;;;20.80;33.70;;;;;;4985796;28;20469;-59
2022/05/29 07:07:10;;;;;;;1.13;1.03;;;20.80;33.70;;;;;;4977105;28;20448;-61
2022/05/29 07:09:39;;;;;;;1.10;1.00;;;20.80;34.60;;;;;;4979275;28;20526;-61
2022/05/29 07:12:08;;;;;;;1.10;1.00;;;20.80;34.80;;;;;;4980238;28;20462;-59
2022/05/29 07:14:55;;;;;;;2.17;1.27;;;20.80;34.30;;;;;;4982835;28;21292;-60
2022/05/29 07:17:22;;;;;;;1.57;1.30;;;20.80;34.30;;;;;;4977984;28;20479;-59
2022/05/29 07:19:48;;;;;;;1.90;1.33;;;20.90;34.50;;;;;;4976594;28;20525;-62
2022/05/29 07:22:14;;;;;;;1.70;1.20;;;20.90;34.20;;;;;;4981179;28;20549;-60
2022/05/29 07:24:40;;;;;;;3.33;1.27;;;20.90;33.80;;;;;;4974572;28;20512;-59
2022/05/29 07:27:06;;;;;;;5.90;1.40;;;20.90;33.60;;;;;;4978155;28;20253;-58
2022/05/29 07:29:33;;;;;;;2.50;1.20;;;20.90;33.40;;;;;;4979134;28;20482;-61
2022/05/29 07:32:00;;;;;;;1.90;1.20;;;20.90;33.30;;;;;;4977717;28;20446;-60
2022/05/29 07:34:27;;;;;;;3.30;1.60;;;21.00;33.20;;;;;;4977891;28;20453;-60
2022/05/29 07:36:53;;;;;;;1.80;1.53;;;20.90;33.20;;;;;;4980697;28;20449;-59
2022/05/29 07:39:20;;;;;;;3.13;1.10;;;20.90;33.10;;;;;;4981683;28;20437;-59
2022/05/29 07:44:29;;;;;;;3.37;1.63;;;20.90;32.90;;;;;;4979388;28;20498;-59
2022/05/29 07:46:56;;;;;;;2.60;1.10;;;20.90;32.90;;;;;;4978783;28;20463;-59
2022/05/29 07:49:22;;;;;;;1.10;1.00;;;20.90;32.80;;;;;;4983042;28;20216;-59
2022/05/29 07:51:48;;;;;;;2.33;1.20;;;20.90;32.80;;;;;;4981195;28;20472;-59
2022/05/29 07:54:14;;;;;;;1.73;1.17;;;20.90;32.70;;;;;;4981886;28;20237;-59
2022/05/29 07:56:40;;;;;;;1.90;1.20;;;20.90;32.80;;;;;;4982045;28;20479;-59
2022/05/29 07:59:05;;;;;;;2.80;1.07;;;20.90;32.80;;;;;;4981718;28;20719;-59
2022/05/29 08:01:31;;;;;;;1.20;1.10;;;20.90;32.80;;;;;;4977839;28;20439;-59
2022/05/29 08:03:57;;;;;;;1.77;1.60;;;20.90;32.90;;;;;;4948372;28;20223;-59
2022/05/29 08:06:22;;;;;;;3.63;1.50;;;20.90;32.90;;;;;;4985728;28;20220;-56
2022/05/29 08:08:48;;;;;;;1.10;1.00;;;20.90;32.90;;;;;;4978584;28;20219;-57
2022/05/29 08:11:17;;;;;;;1.43;1.10;;;20.90;32.90;;;;;;4985671;28;20249;-56
2022/05/29 08:13:43;;;;;;;2.40;1.20;;;20.90;32.90;;;;;;4979132;28;20233;-56
2022/05/29 08:16:09;;;;;;;1.53;1.20;;;20.90;33.00;;;;;;4982282;28;20428;-56
2022/05/29 08:18:34;;;;;;;1.20;1.10;;;20.80;32.90;;;;;;4983483;28;20520;-56
2022/05/29 08:21:00;;;;;;;2.40;1.27;;;20.90;33.00;;;;;;4977565;28;20259;-56
2022/05/29 08:23:26;;;;;;;1.80;1.30;;;20.80;32.90;;;;;;4984601;28;20674;-56
2022/05/29 08:31:23;;;;;;;1.97;1.20;;;20.80;33.00;;;;;;4980580;28;20461;-56
2022/05/29 08:33:49;;;;;;;1.47;1.10;;;20.80;33.10;;;;;;4984698;28;20857;-56
2022/05/29 08:36:19;;;;;;;1.20;1.10;;;20.80;33.10;;;;;;4982442;28;20422;-56
2022/05/29 08:38:47;;;;;;;1.20;1.10;;;20.80;33.30;;;;;;4978867;28;20312;-57
2022/05/29 08:41:17;;;;;;;1.13;1.00;;;20.80;33.60;;;;;;4981016;28;20447;-57
2022/05/29 08:43:58;;;;;;;1.30;1.03;;;20.80;33.80;;;;;;4979708;28;20462;-56
2022/05/29 08:46:56;;;;;;;2.13;1.20;;;20.80;34.00;;;;;;4981804;28;20460;-57
2022/05/29 08:49:26;;;;;;;1.40;1.27;;;20.80;34.00;;;;;;4995440;28;20520;-57
2022/05/29 08:52:00;;;;;;;1.93;1.20;;;20.80;34.00;;;;;;4995547;28;20440;-56
2022/05/29 08:54:44;;;;;;;1.63;1.37;;;20.80;33.90;;;;;;4997080;28;20459;-59
2022/05/29 08:57:32;;;;;;;1.90;1.30;;;20.80;33.80;;;;;;4999853;28;20496;-59
2022/05/29 09:00:06;;;;;;;1.50;1.40;;;20.80;33.80;;;;;;5001083;28;20473;-57
2022/05/29 09:03:08;;;;;;;1.30;1.20;;;20.80;33.80;;;;;;4999387;28;20850;-58
2022/05/29 09:05:45;;;;;;;1.97;1.27;;;20.80;33.90;;;;;;4987522;28;20462;-56
2022/05/29 09:08:21;;;;;;;10.30;1.50;;;20.80;33.80;;;;;;5003999;28;20452;-57
2022/05/29 09:10:53;;;;;;;1.50;1.40;;;20.70;33.90;;;;;;5000142;28;20849;-59
2022/05/29 09:13:35;;;;;;;2.50;1.20;;;20.80;33.90;;;;;;4999725;28;20413;-57
2022/05/29 09:16:11;;;;;;;1.20;0.97;;;20.80;34.10;;;;;;5000622;28;20485;-59
2022/05/29 09:18:48;;;;;;;0.90;0.90;;;20.70;34.20;;;;;;4999951;28;20974;-58
2022/05/29 09:21:17;;;;;;;1.10;1.00;;;20.80;34.30;;;;;;5002714;28;20503;-58
2022/05/29 09:23:52;;;;;;;1.20;1.10;;;20.70;34.20;;;;;;4984127;28;20450;-58
2022/05/29 09:26:19;;;;;;;1.30;1.20;;;20.80;34.30;;;;;;4981717;28;20465;-58
2022/05/29 09:28:45;;;;;;;1.30;1.17;;;20.80;34.30;;;;;;4982566;28;20462;-57
2022/05/29 09:31:25;;;;;;;1.27;1.10;;;20.80;34.30;;;;;;4981922;28;20923;-57
2022/05/29 09:33:51;;;;;;;1.40;1.30;;;20.70;34.20;;;;;;4978626;28;20447;-57
2022/05/29 09:36:44;;;;;;;1.70;1.30;;;20.70;34.20;;;;;;4983302;28;20458;-59
2022/05/29 09:39:35;;;;;;;1.30;1.20;;;20.70;34.20;;;;;;4981064;28;20541;-57
2022/05/29 09:42:08;;;;;;;1.40;1.17;;;20.70;34.20;;;;;;4981115;28;20459;-57
2022/05/29 09:44:33;;;;;;;3.03;1.50;;;20.70;34.20;;;;;;4979369;28;20951;-57
2022/05/29 09:50:06;;;;;;;3.03;1.37;;;20.70;34.20;;;;;;4979989;28;20680;-57
2022/05/29 09:52:37;;;;;;;2.07;1.87;;;20.70;34.20;;;;;;4980073;28;20459;-58
2022/05/29 09:55:12;;;;;;;1.50;1.10;;;20.70;34.20;;;;;;4978150;28;20465;-57
2022/05/29 09:57:42;;;;;;;1.37;1.27;;;20.70;34.20;;;;;;4980157;28;20931;-60
2022/05/29 10:00:14;;;;;;;1.30;1.20;;;20.70;34.20;;;;;;4978875;28;20476;-60
2022/05/29 10:02:44;;;;;;;1.10;1.00;;;20.70;34.30;;;;;;4980135;28;20450;-59
2022/05/29 10:05:29;;;;;;;1.60;1.00;;;20.70;34.20;;;;;;4978740;28;20844;-60
2022/05/29 10:07:58;;;;;;;1.70;1.23;;;20.70;34.20;;;;;;4980645;28;20451;-58
2022/05/29 10:10:26;;;;;;;1.20;1.10;;;20.80;34.40;;;;;;4978893;28;20469;-58
2022/05/29 10:12:54;;;;;;;1.23;1.10;;;20.80;34.40;;;;;;4980701;28;20550;-58
2022/05/29 10:15:26;;;;;;;6.93;2.03;;;20.80;34.50;;;;;;4979224;28;20956;-58
2022/05/29 10:17:58;;;;;;;2.23;1.03;;;20.80;34.60;;;;;;4977038;28;20474;-58
2022/05/29 10:20:27;;;;;;;3.47;1.67;;;20.80;34.70;;;;;;4978787;28;20991;-57
2022/05/29 10:22:55;;;;;;;1.60;1.40;;;20.90;35.00;;;;;;4985248;28;20458;-59
2022/05/29 10:25:24;;;;;;;2.40;1.10;;;20.90;35.10;;;;;;4980271;28;20448;-59
2022/05/29 10:27:53;;;;;;;1.23;1.13;;;20.90;35.10;;;;;;4981698;28;20795;-59
2022/05/29 10:30:30;;;;;;;1.27;1.00;;;20.90;35.30;;;;;;4981505;28;21063;-58
2022/05/29 10:33:01;;;;;;;2.40;1.80;;;20.90;35.30;;;;;;4982596;28;20437;-59
2022/05/29 10:35:30;;;;;;;1.50;1.40;;;20.80;35.30;;;;;;4982580;28;20459;-57
2022/05/29 10:37:56;;;;;;;1.30;1.20;;;20.80;35.50;;;;;;4980928;28;20474;-56
2022/05/29 10:40:28;;;;;;;7.80;1.30;;;20.80;35.60;;;;;;4976791;28;20843;-57
2022/05/29 10:42:57;;;;;;;1.30;1.20;;;20.80;35.60;;;;;;4979975;28;20467;-56
2022/05/29 10:45:32;;;;;;;1.40;1.20;;;20.80;35.60;;;;;;4977698;28;20514;-57
2022/05/29 10:48:03;;;;;;;1.57;1.30;;;20.90;35.70;;;;;;4982192;28;20598;-56
2022/05/29 10:50:59;;;;;;;1.77;1.30;;;20.80;35.80;;;;;;4978940;28;20787;-56
2022/05/29 10:53:59;;;;;;;1.23;1.13;;;20.90;35.90;;;;;;4995576;28;21298;-56
2022/05/29 10:57:02;;;;;;;2.30;1.30;;;20.80;35.90;;;;;;5000468;28;20529;-57
2022/05/29 11:00:05;;;;;;;1.70;1.30;;;20.80;36.00;;;;;;4978262;28;20445;-57
2022/05/29 11:05:38;;;;;;;1.50;1.23;;;20.80;36.10;;;;;;4994990;28;20790;-57
2022/05/29 11:08:22;;;;;;;5.20;1.67;;;20.80;36.20;;;;;;5000102;28;20531;-56
2022/05/29 11:11:13;;;;;;;1.77;1.50;;;20.80;36.20;;;;;;4996520;28;20957;-57
2022/05/29 11:13:45;;;;;;;1.40;1.30;;;20.80;36.30;;;;;;4997427;28;20527;-56
2022/05/29 11:16:19;;;;;;;2.23;1.63;;;20.80;36.30;;;;;;4994087;28;20931;-56
2022/05/29 11:19:23;;;;;;;1.40;1.30;;;20.80;37.20;;;;;;4995743;28;20445;-57
2022/05/29 11:22:17;;;;;;;1.23;1.13;;;20.80;36.40;;;;;;4992406;28;20441;-57
2022/05/29 11:24:57;;;;;;;1.97;1.33;;;20.80;36.50;;;;;;4996225;28;20457;-57
2022/05/29 11:27:45;;;;;;;1.70;1.17;;;20.80;36.60;;;;;;4977155;28;20482;-56
2022/05/29 11:30:34;;;;;;;1.47;1.30;;;20.80;36.60;;;;;;4998002;28;20449;-56
2022/05/29 11:33:30;;;;;;;1.60;1.50;;;20.80;36.60;;;;;;4996374;28;20884;-56
2022/05/29 11:36:14;;;;;;;2.50;1.40;;;20.70;36.60;;;;;;5008859;28;20462;-56
2022/05/29 11:38:54;;;;;;;1.53;1.30;;;20.70;37.40;;;;;;5000140;28;20462;-56
2022/05/29 11:41:34;;;;;;;1.53;1.30;;;20.70;36.70;;;;;;4995631;28;20456;-56
2022/05/29 11:44:41;;;;;;;1.57;1.47;;;20.70;36.70;;;;;;4993478;28;20517;-56
2022/05/29 11:54:08;;;;;;;2.40;1.73;;;20.70;36.70;;;;;;4982793;28;20462;-56
2022/05/29 11:56:51;;;;;;;1.80;1.70;;;20.70;36.80;;;;;;5009303;28;20461;-56
2022/05/29 11:59:29;;;;;;;6.30;2.77;;;20.70;36.80;;;;;;5018118;28;20480;-57
2022/05/29 12:02:22;;;;;;;2.43;2.23;;;20.70;36.90;;;;;;4983063;28;20526;-57
2022/05/29 12:04:59;;;;;;;2.30;2.10;;;20.70;36.90;;;;;;4976477;28;20545;-56
2022/05/29 12:07:35;;;;;;;2.83;2.00;;;20.70;36.90;;;;;;4996397;28;20872;-56
2022/05/29 12:10:17;;;;;;;2.27;2.10;;;20.70;36.90;;;;;;5002322;28;20496;-56
2022/05/29 12:12:47;;;;;;;2.67;2.10;;;20.70;36.90;;;;;;4977085;28;20846;-56
2022/05/29 12:15:18;;;;;;;2.10;1.90;;;20.70;36.90;;;;;;4991475;28;20436;-56
2022/05/29 12:17:50;;;;;;;2.63;1.93;;;20.70;36.90;;;;;;4998574;28;20456;-56
2022/05/29 12:20:22;;;;;;;3.40;2.30;;;20.70;36.90;;;;;;4997803;28;20990;-56
2022/05/29 12:22:52;;;;;;;2.07;1.87;;;20.70;36.90;;;;;;4993824;28;20803;-56
2022/05/29 12:25:49;;;;;;;2.10;2.00;;;20.70;36.90;;;;;;4999112;28;20488;-56
2022/05/29 12:28:56;;;;;;;1.90;1.80;;;20.70;36.90;;;;;;4995744;28;20453;-56
2022/05/29 12:31:32;;;;;;;2.47;2.27;;;20.70;36.90;;;;;;4998660;28;20446;-56
2022/05/29 12:33:58;;;;;;;2.47;2.20;;;20.70;37.00;;;;;;4975054;28;20481;-56
2022/05/29 12:37:00;;;;;;;2.23;1.83;;;20.70;37.00;;;;;;4978069;28;20487;-56
2022/05/29 12:39:50;;;;;;;2.60;1.93;;;20.70;37.00;;;;;;4979326;28;20231;-56
2022/05/29 12:42:26;;;;;;;2.10;1.77;;;20.70;37.00;;;;;;4983262;28;20454;-56
2022/05/29 12:45:23;;;;;;;3.30;2.03;;;20.70;37.00;;;;;;4981045;28;20471;-56
2022/05/29 12:48:06;;;;;;;2.30;2.10;;;20.70;37.00;;;;;;4982465;28;20450;-57
2022/05/29 12:50:39;;;;;;;2.10;1.90;;;20.70;37.10;;;;;;4984128;28;20946;-57
2022/05/29 12:53:26;;;;;;;2.40;2.10;;;20.70;37.10;;;;;;4996474;28;20518;-57
2022/05/29 12:56:33;;;;;;;2.37;2.03;;;20.70;37.20;;;;;;4982761;28;20507;-56
2022/05/29 12:59:20;;;;;;;2.10;1.77;;;20.70;37.20;;;;;;4978096;28;20984;-56
2022/05/29 13:02:17;;;;;;;2.50;2.30;;;20.70;37.20;;;;;;4978717;28;20457;-56
2022/05/29 13:05:14;;;;;;;2.00;1.80;;;20.70;37.30;;;;;;4986201;28;20465;-56
2022/05/29 13:07:58;;;;;;;2.83;2.37;;;20.60;37.20;;;;;;4979025;28;20537;-57
2022/05/29 13:10:38;;;;;;;2.50;2.00;;;20.70;37.30;;;;;;4983647;28;20450;-56
2022/05/29 13:13:24;;;;;;;2.13;2.03;;;20.70;37.30;;;;;;4982930;28;20446;-56
2022/05/29 13:15:50;;;;;;;2.80;2.13;;;20.70;37.30;;;;;;4981618;28;20934;-57
2022/05/29 13:18:25;;;;;;;1.90;1.70;;;20.70;37.40;;;;;;4982357;28;20457;-56
2022/05/29 13:21:20;;;;;;;2.20;2.00;;;20.70;37.40;;;;;;4977197;28;20238;-56
2022/05/29 13:23:52;;;;;;;2.90;2.10;;;20.70;37.30;;;;;;4985399;28;20427;-56
2022/05/29 13:26:22;;;;;;;1.90;1.80;;;20.60;37.40;;;;;;4981630;28;20461;-60
2022/05/29 13:28:53;;;;;;;2.10;2.00;;;20.70;37.50;;;;;;4978119;28;20943;-60
2022/05/29 13:31:20;;;;;;;1.70;1.60;;;20.70;37.50;;;;;;4982335;28;20458;-59
2022/05/29 13:33:49;;;;;;;2.40;1.77;;;20.70;37.50;;;;;;4982310;28;20458;-60
2022/05/29 13:36:48;;;;;;;2.33;1.80;;;20.70;37.50;;;;;;4982727;28;20428;-60
2022/05/29 13:39:25;;;;;;;2.10;2.00;;;20.70;37.50;;;;;;4998329;28;20454;-58
2022/05/29 13:42:09;;;;;;;2.17;2.00;;;20.70;37.50;;;;;;5001525;28;20412;-59
2022/05/29 13:44:40;;;;;;;3.00;2.00;;;20.70;37.50;;;;;;4995565;28;20488;-58
2022/05/29 13:47:22;;;;;;;1.80;1.70;;;20.70;38.20;;;;;;4979775;28;20455;-58
2022/05/29 13:50:10;;;;;;;1.87;1.63;;;20.70;37.50;;;;;;5000170;28;20457;-59
2022/05/29 13:52:52;;;;;;;3.10;2.03;;;20.70;37.40;;;;;;4997943;28;20445;-58
2022/05/29 13:55:22;;;;;;;2.13;1.60;;;20.70;37.40;;;;;;4980571;28;20447;-59
2022/05/29 14:04:04;;;;;;;1.60;1.50;;;20.70;37.50;;;;;;4978622;28;20477;-58